Time;durP1;ratioP1;P1;durP2;ratioP2;P2;SDS_P1;SDS_P2;PMS_P1;PMS_P2;Temp;Humidity;BMP_temperature;BMP_pressure;BME280_temperature;BME280_humidity;BME280_pressure;Samples;Min_cycle;Max_cycle;Signal;HPM_P1;HPM_P2
2022/09/20 00:00:36;;;;;;;2.72;1.20;;;;;;;1.66;100.00;93516.53;2117207;27;20051;-69
2022/09/20 00:01:37;;;;;;;1.75;1.27;;;;;;;1.70;100.00;93520.75;2121341;27;20031;-70
2022/09/20 00:02:39;;;;;;;4.22;1.25;;;;;;;1.67;100.00;93516.22;2119074;27;20098;-69
2022/09/20 00:03:42;;;;;;;3.00;1.10;;;;;;;1.70;100.00;93510.22;2118791;27;20053;-69
2022/09/20 00:04:43;;;;;;;4.85;1.20;;;;;;;1.69;100.00;93519.25;2118756;27;20028;-69
2022/09/20 00:05:45;;;;;;;1.92;1.20;;;;;;;1.55;100.00;93519.00;2120101;27;20023;-69
2022/09/20 00:06:46;;;;;;;2.28;1.30;;;;;;;1.59;100.00;93525.09;2118768;27;20038;-69
2022/09/20 00:07:46;;;;;;;2.80;1.30;;;;;;;1.55;100.00;93519.00;2118635;27;20026;-71
2022/09/20 00:08:48;;;;;;;2.75;1.00;;;;;;;1.60;100.00;93520.56;2115015;28;20092;-71
2022/09/20 00:09:49;;;;;;;3.50;1.10;;;;;;;1.59;100.00;93516.44;2118975;27;20082;-68
2022/09/20 00:10:50;;;;;;;1.55;1.00;;;;;;;1.58;100.00;93512.25;2119936;27;20659;-69
2022/09/20 00:11:51;;;;;;;2.85;1.30;;;;;;;1.56;100.00;93509.22;2118003;27;20031;-69
2022/09/20 00:12:52;;;;;;;3.22;1.20;;;;;;;1.51;100.00;93521.56;2118978;27;20035;-70
2022/09/20 00:13:56;;;;;;;2.88;1.33;;;;;;;1.55;100.00;93512.97;2122130;27;20716;-68
2022/09/20 00:14:57;;;;;;;3.38;1.00;;;;;;;1.62;100.00;93518.34;2118398;27;20477;-69
2022/09/20 00:15:58;;;;;;;3.10;1.17;;;;;;;1.53;100.00;93521.19;2118497;27;20358;-69
2022/09/20 00:16:59;;;;;;;2.17;0.95;;;;;;;1.46;100.00;93523.72;2118735;27;20383;-69
2022/09/20 00:18:00;;;;;;;2.45;1.02;;;;;;;1.52;100.00;93519.69;2118455;27;20031;-69
2022/09/20 00:19:04;;;;;;;2.10;1.00;;;;;;;1.47;100.00;93522.59;2118740;27;20377;-68
2022/09/20 00:20:05;;;;;;;4.30;1.05;;;;;;;1.49;100.00;93518.53;2117787;27;20032;-70
2022/09/20 00:21:06;;;;;;;2.20;1.05;;;;;;;1.56;100.00;93523.13;2109653;27;20027;-70
2022/09/20 00:22:07;;;;;;;2.08;1.20;;;;;;;1.55;100.00;93518.22;2116734;27;20030;-70
2022/09/20 00:23:08;;;;;;;3.05;0.90;;;;;;;1.49;100.00;93515.88;2120293;27;20039;-69
2022/09/20 00:24:09;;;;;;;1.70;1.00;;;;;;;1.47;100.00;93522.59;2118610;27;20342;-69
2022/09/20 00:25:10;;;;;;;1.33;0.90;;;;;;;1.48;100.00;93522.25;2118628;27;20483;-69
2022/09/20 00:26:12;;;;;;;3.42;1.10;;;;;;;1.48;100.00;93522.25;2117182;27;20031;-70
2022/09/20 00:27:13;;;;;;;3.63;1.30;;;;;;;1.47;100.00;93514.69;2117930;27;20015;-69
2022/09/20 00:28:14;;;;;;;6.15;1.00;;;;;;;1.48;100.00;93519.59;2118837;27;20112;-69
2022/09/20 00:29:16;;;;;;;3.53;1.42;;;;;;;1.46;100.00;93515.81;2118418;27;20027;-69
2022/09/20 00:30:17;;;;;;;2.63;1.05;;;;;;;1.42;100.00;93515.75;2118466;27;20023;-70
2022/09/20 00:31:18;;;;;;;5.82;0.98;;;;;;;1.42;100.00;93514.97;2122310;27;20447;-69
2022/09/20 00:32:19;;;;;;;3.33;0.98;;;;;;;1.39;100.00;93520.94;2118495;27;20031;-70
2022/09/20 00:33:22;;;;;;;2.25;0.98;;;;;;;1.46;100.00;93511.31;2117987;27;20023;-70
2022/09/20 00:35:44;;;;;;;1.17;0.80;;;;;;;1.41;100.00;93503.69;2118456;27;20106;-69
2022/09/20 00:36:45;;;;;;;4.68;0.95;;;;;;;1.42;100.00;93504.44;2118545;27;20076;-69
2022/09/20 00:37:46;;;;;;;1.92;1.10;;;;;;;1.44;100.00;93507.47;2119915;27;20041;-69
2022/09/20 00:38:47;;;;;;;3.17;1.27;;;;;;;1.41;100.00;93502.94;2118951;27;20051;-70
2022/09/20 00:39:48;;;;;;;1.25;0.70;;;;;;;1.28;100.00;93504.94;2117924;27;20437;-70
2022/09/20 00:40:49;;;;;;;4.72;1.10;;;;;;;1.47;100.00;93501.53;2118070;27;20035;-70
2022/09/20 00:41:50;;;;;;;3.05;1.05;;;;;;;1.36;100.00;93501.34;2118551;27;20051;-69
2022/09/20 00:42:52;;;;;;;3.45;0.93;;;;;;;1.34;100.00;93502.78;2118567;27;20766;-69
2022/09/20 00:43:53;;;;;;;2.08;1.00;;;;;;;1.37;100.00;93510.75;2119365;27;20031;-69
2022/09/20 00:45:02;;;;;;;2.53;1.00;;;;;;;1.32;100.00;93507.63;2118517;27;20030;-68
2022/09/20 00:46:05;;;;;;;2.53;0.95;;;;;;;1.33;100.00;93502.03;2117715;27;20085;-69
2022/09/20 00:47:13;;;;;;;4.28;1.15;;;;;;;1.30;100.00;93504.59;2118329;27;20744;-69
2022/09/20 00:48:25;;;;;;;2.65;1.10;;;;;;;1.28;100.00;93499.69;2117700;27;20050;-69
2022/09/20 00:49:27;;;;;;;1.90;1.00;;;;;;;1.34;100.00;93506.16;2118400;27;20026;-69
2022/09/20 00:50:48;;;;;;;3.15;1.05;;;;;;;1.38;100.00;93498.34;2118547;27;20019;-70
2022/09/20 00:51:57;;;;;;;2.42;0.90;;;;;;;1.36;100.00;93500.56;2118258;27;20020;-68
2022/09/20 00:53:16;;;;;;;1.42;0.90;;;;;;;1.31;100.00;93498.19;2118412;27;20031;-69
2022/09/20 00:54:21;;;;;;;1.80;0.93;;;;;;;1.29;100.00;93493.28;2121313;27;20102;-69
2022/09/20 00:55:22;;;;;;;2.38;0.95;;;;;;;1.23;100.00;93492.06;2117388;28;20483;-69
2022/09/20 00:56:34;;;;;;;0.98;0.73;;;;;;;1.20;100.00;93498.00;2118094;27;20031;-69
2022/09/20 00:57:37;;;;;;;2.25;1.00;;;;;;;1.22;100.00;93487.88;2117893;27;20360;-69
2022/09/20 00:59:15;;;;;;;1.27;0.88;;;;;;;1.27;100.00;93492.84;2117684;27;20072;-70
2022/09/20 01:00:16;;;;;;;1.33;0.70;;;;;;;1.26;100.00;93497.38;2118333;27;20377;-70
2022/09/20 01:01:17;;;;;;;2.42;0.88;;;;;;;1.24;100.00;93490.94;2122120;27;20020;-69
2022/09/20 01:02:24;;;;;;;5.72;1.10;;;;;;;1.25;100.00;93498.47;2115000;27;20450;-69
2022/09/20 01:03:30;;;;;;;1.02;0.80;;;;;;;1.32;100.00;93492.59;2117495;27;20023;-69
2022/09/20 01:04:34;;;;;;;2.13;0.90;;;;;;;1.33;100.00;93501.25;2117042;27;20035;-69
2022/09/20 01:05:37;;;;;;;1.10;0.90;;;;;;;1.23;100.00;93498.09;2118078;27;20069;-69
2022/09/20 01:06:43;;;;;;;2.10;0.90;;;;;;;1.27;100.00;93503.38;2118249;27;20027;-69
2022/09/20 01:07:47;;;;;;;1.35;1.10;;;;;;;1.27;100.00;93503.38;2118136;27;20480;-69
2022/09/20 01:08:50;;;;;;;2.22;0.85;;;;;;;1.26;100.00;93492.09;2117718;27;20032;-69
2022/09/20 01:09:51;;;;;;;1.98;0.77;;;;;;;1.26;100.00;93499.25;2114506;27;20027;-69
2022/09/20 01:10:52;;;;;;;1.60;0.90;;;;;;;1.25;100.00;93503.00;2117215;27;20043;-71
2022/09/20 01:11:55;;;;;;;2.25;0.98;;;;;;;1.19;100.00;93502.50;2116971;27;20031;-69
2022/09/20 01:12:57;;;;;;;2.30;0.85;;;;;;;1.20;100.00;93505.91;2117946;27;20023;-69
2022/09/20 01:13:58;;;;;;;3.60;1.00;;;;;;;1.14;100.00;93504.63;2119755;27;20461;-69
2022/09/20 01:15:00;;;;;;;1.58;0.90;;;;;;;1.18;100.00;93494.94;2118813;27;20128;-69
2022/09/20 01:16:02;;;;;;;1.63;0.88;;;;;;;1.21;100.00;93499.53;2117899;27;20499;-69
2022/09/20 01:17:05;;;;;;;3.88;1.10;;;;;;;1.14;100.00;93499.38;2118044;27;20530;-69
2022/09/20 01:18:08;;;;;;;2.58;0.98;;;;;;;1.09;100.00;93505.69;2117028;27;20057;-70
2022/09/20 01:19:22;;;;;;;2.85;1.05;;;;;;;1.09;100.00;93505.69;2117290;27;20027;-69
2022/09/20 01:20:28;;;;;;;6.18;1.17;;;;;;;1.14;100.00;93505.44;2114270;27;20059;-68
2022/09/20 01:21:29;;;;;;;3.47;1.00;;;;;;;1.14;100.00;93497.53;2118057;27;20457;-69
2022/09/20 01:23:05;;;;;;;1.50;1.00;;;;;;;1.20;100.00;93498.75;2117981;27;20024;-70
2022/09/20 01:24:19;;;;;;;2.92;1.13;;;;;;;1.18;100.00;93498.34;2118082;27;20034;-68
2022/09/20 01:25:40;;;;;;;2.53;0.90;;;;;;;1.20;100.00;93498.00;2118064;27;20019;-71
2022/09/20 01:26:59;;;;;;;2.30;1.20;;;;;;;1.18;100.00;93503.59;2117532;27;20405;-70
2022/09/20 01:28:00;;;;;;;2.20;1.10;;;;;;;1.14;100.00;93500.16;2117922;27;20484;-69
2022/09/20 01:29:19;;;;;;;3.03;0.88;;;;;;;1.18;100.00;93494.94;2118162;27;20027;-71
2022/09/20 01:30:24;;;;;;;1.70;1.00;;;;;;;1.12;100.00;93491.84;2118118;27;20031;-68
2022/09/20 01:31:30;;;;;;;3.53;1.00;;;;;;;1.17;100.00;93496.06;2118005;27;20019;-68
2022/09/20 01:32:58;;;;;;;2.10;1.00;;;;;;;1.19;100.00;93496.50;2117838;27;20027;-68
2022/09/20 01:34:07;;;;;;;1.63;0.90;;;;;;;1.14;100.00;93494.91;2118093;27;20104;-71
2022/09/20 01:35:10;;;;;;;1.88;1.00;;;;;;;1.16;100.00;93497.19;2118094;27;20071;-69
2022/09/20 01:36:17;;;;;;;1.85;0.95;;;;;;;1.01;100.00;93488.25;2118800;27;20698;-68
2022/09/20 01:37:27;;;;;;;1.20;1.00;;;;;;;1.06;100.00;93489.84;2117963;27;20019;-69
2022/09/20 01:38:34;;;;;;;2.10;0.75;;;;;;;1.05;100.00;93485.66;2117545;27;20118;-69
2022/09/20 01:39:53;;;;;;;1.80;1.20;;;;;;;1.05;100.00;93499.56;2117945;27;20038;-69
2022/09/20 01:41:20;;;;;;;2.15;0.98;;;;;;;0.98;100.00;93494.19;2118128;27;20030;-68
2022/09/20 01:42:29;;;;;;;2.30;0.93;;;;;;;0.98;100.00;93492.31;2117558;27;20663;-69
2022/09/20 01:43:39;;;;;;;1.60;1.00;;;;;;;1.05;100.00;93491.69;2117516;27;20019;-70
2022/09/20 01:44:58;;;;;;;;;;;;;;;1.07;100.00;93492.13;2119543;27;20023;-69
2022/09/20 01:46:12;;;;;;;1.38;0.82;;;;;;;0.96;100.00;93497.16;2117924;27;19918;-71
2022/09/20 01:47:44;;;;;;;1.75;1.15;;;;;;;0.99;100.00;93487.81;2120597;27;20023;-68
2022/09/20 01:48:49;;;;;;;3.80;0.85;;;;;;;0.93;100.00;93489.19;2117302;27;20035;-69
2022/09/20 01:50:00;;;;;;;2.05;0.80;;;;;;;0.90;100.00;93495.16;2117667;27;20028;-69
2022/09/20 01:51:07;;;;;;;3.38;1.02;;;;;;;0.94;100.00;93488.09;2117946;27;20111;-68
2022/09/20 01:52:45;;;;;;;1.73;1.45;;;;;;;0.81;100.00;93490.06;2119428;27;20038;-69
2022/09/20 01:54:40;;;;;;;1.83;0.80;;;;;;;0.93;100.00;93489.97;2119400;27;20049;-69
2022/09/20 01:56:09;;;;;;;3.17;1.05;;;;;;;0.94;100.00;93488.84;2090929;28;20071;-69
2022/09/20 01:57:09;;;;;;;4.00;1.35;;;;;;;0.92;100.00;93492.91;2090488;28;20075;-69
2022/09/20 01:58:28;;;;;;;1.17;0.82;;;;;;;0.91;100.00;93486.91;2107050;27;20059;-69
2022/09/20 01:59:55;;;;;;;1.27;0.80;;;;;;;0.94;100.00;93491.47;2117802;27;20035;-71
2022/09/20 02:01:14;;;;;;;1.42;0.90;;;;;;;0.94;100.00;93488.09;2089833;28;20045;-69
2022/09/20 02:02:25;;;;;;;2.38;0.88;;;;;;;0.95;100.00;93497.50;2116715;27;20042;-69
2022/09/20 02:04:02;;;;;;;1.98;1.20;;;;;;;0.92;100.00;93485.03;2117826;27;20054;-71
2022/09/20 02:05:22;;;;;;;2.65;1.08;;;;;;;0.87;100.00;93491.31;2115906;27;20068;-70
2022/09/20 02:06:48;;;;;;;3.67;0.90;;;;;;;0.93;100.00;93494.47;2118264;27;20031;-69
2022/09/20 02:07:53;;;;;;;2.08;0.80;;;;;;;0.93;100.00;93484.69;2120641;27;20152;-69
2022/09/20 02:09:21;;;;;;;1.17;0.90;;;;;;;0.88;100.00;93492.88;2121266;27;20031;-69
2022/09/20 02:10:40;;;;;;;1.23;0.82;;;;;;;0.88;100.00;93484.97;2117951;27;20029;-69
2022/09/20 02:12:03;;;;;;;1.10;1.00;;;;;;;0.84;100.00;93489.41;2114689;28;20024;-70
2022/09/20 02:13:19;;;;;;;2.83;0.98;;;;;;;0.82;100.00;93483.69;2117993;28;20027;-69
2022/09/20 02:16:08;;;;;;;3.40;1.13;;;;;;;0.83;100.00;93481.84;2136248;27;20181;-72
2022/09/20 02:17:12;;;;;;;1.25;0.80;;;;;;;0.79;100.00;93484.41;2127894;27;20031;-72
2022/09/20 02:18:38;;;;;;;4.22;1.15;;;;;;;0.81;100.00;93487.44;2128555;27;20453;-71
2022/09/20 02:20:14;;;;;;;1.80;0.95;;;;;;;0.82;100.00;93496.09;2127106;27;20027;-71
2022/09/20 02:21:33;;;;;;;4.15;0.88;;;;;;;0.75;100.00;93484.34;2093242;28;20081;-70
2022/09/20 02:22:54;;;;;;;2.10;0.95;;;;;;;0.76;100.00;93485.09;2094554;28;20490;-70
2022/09/20 02:24:03;;;;;;;3.75;0.90;;;;;;;0.80;100.00;93485.16;2116431;27;20087;-71
2022/09/20 02:25:36;;;;;;;1.40;0.90;;;;;;;0.75;100.00;93489.59;2129042;27;20115;-71
2022/09/20 02:26:45;;;;;;;1.50;1.00;;;;;;;0.85;100.00;93482.25;2129178;27;20096;-70
2022/09/20 02:28:16;;;;;;;2.80;1.30;;;;;;;0.84;100.00;93484.13;2129401;27;20034;-67
2022/09/20 02:29:23;;;;;;;4.45;1.15;;;;;;;0.75;100.00;93483.56;2129017;27;20448;-68
2022/09/20 02:30:51;;;;;;;1.92;1.15;;;;;;;0.80;100.00;93488.56;2125336;27;20441;-70
2022/09/20 02:32:05;;;;;;;1.08;0.90;;;;;;;0.77;100.00;93483.97;2124666;27;20031;-70
2022/09/20 02:33:05;;;;;;;2.25;1.17;;;;;;;0.77;100.00;93483.97;2128970;27;20061;-70
2022/09/20 02:34:28;;;;;;;2.45;1.23;;;;;;;0.70;100.00;93484.59;2128515;27;20026;-70
2022/09/20 02:35:34;;;;;;;2.45;0.93;;;;;;;0.72;100.00;93479.75;2116812;28;20221;-70
2022/09/20 02:36:54;;;;;;;5.05;1.65;;;;;;;0.61;100.00;93485.88;2120862;27;20493;-71
2022/09/20 02:38:13;;;;;;;1.08;0.80;;;;;;;0.69;100.00;93472.53;2125190;27;20034;-70
2022/09/20 02:39:26;;;;;;;5.50;1.00;;;;;;;0.73;100.00;93477.88;2128344;27;20672;-71
2022/09/20 02:40:59;;;;;;;1.77;1.30;;;;;;;0.74;100.00;93480.16;2129222;27;20026;-69
2022/09/20 02:42:24;;;;;;;4.50;1.15;;;;;;;0.73;100.00;93475.25;2091469;28;20040;-69
2022/09/20 02:43:34;;;;;;;1.67;1.08;;;;;;;0.70;100.00;93481.97;2122079;27;20031;-68
2022/09/20 02:44:53;;;;;;;2.78;1.00;;;;;;;0.65;100.00;93473.56;2127984;27;20034;-68
2022/09/20 02:45:54;;;;;;;2.30;1.00;;;;;;;0.61;100.00;93475.34;2125090;27;20031;-71
2022/09/20 02:47:23;;;;;;;4.30;1.20;;;;;;;0.58;100.00;93476.81;2129326;27;20342;-70
2022/09/20 02:48:36;;;;;;;1.08;0.80;;;;;;;0.61;100.00;93472.72;2125380;27;20031;-70
2022/09/20 02:49:55;;;;;;;3.75;1.10;;;;;;;0.63;100.00;93478.44;2128461;27;20034;-70
2022/09/20 02:51:22;;;;;;;1.73;0.88;;;;;;;0.58;100.00;93478.69;2124932;27;20032;-68
2022/09/20 02:52:31;;;;;;;1.75;0.88;;;;;;;0.67;100.00;93472.13;2124883;27;20054;-68
2022/09/20 02:54:26;;;;;;;2.05;1.13;;;;;;;0.70;100.00;93481.97;2129120;27;20030;-70
2022/09/20 02:55:48;;;;;;;4.47;1.15;;;;;;;0.66;100.00;93469.81;2084833;28;20061;-69
2022/09/20 02:57:09;;;;;;;1.95;0.90;;;;;;;0.70;100.00;93478.56;2085895;28;20029;-69
2022/09/20 02:58:23;;;;;;;1.77;1.02;;;;;;;0.66;100.00;93475.88;2113193;27;20180;-69
2022/09/20 02:59:35;;;;;;;3.40;1.10;;;;;;;0.66;100.00;93481.13;2125386;27;20022;-68
2022/09/20 03:00:45;;;;;;;3.15;1.00;;;;;;;0.63;100.00;93483.69;2128328;27;20027;-71
2022/09/20 03:01:59;;;;;;;1.38;0.90;;;;;;;0.66;100.00;93475.09;2129123;27;20030;-67
2022/09/20 03:03:07;;;;;;;1.50;1.02;;;;;;;0.61;100.00;93484.00;2112820;28;20552;-70
2022/09/20 03:04:46;;;;;;;2.63;1.20;;;;;;;0.64;100.00;93474.69;2120461;27;20413;-70
2022/09/20 03:05:56;;;;;;;1.58;0.93;;;;;;;0.61;100.00;93475.34;2111221;28;20081;-70
2022/09/20 03:07:20;;;;;;;4.45;1.08;;;;;;;0.42;100.00;93484.75;2117648;27;20368;-70
2022/09/20 03:08:40;;;;;;;4.75;1.30;;;;;;;0.49;100.00;93487.53;2085687;28;20124;-71
2022/09/20 03:09:53;;;;;;;3.15;1.10;;;;;;;0.53;100.00;93477.09;2122920;27;20023;-68
2022/09/20 03:11:16;;;;;;;1.90;0.77;;;;;;;0.49;100.00;93479.66;2118413;27;20531;-70
2022/09/20 03:12:49;;;;;;;2.88;1.02;;;;;;;0.54;100.00;93485.75;2128792;27;20057;-70
2022/09/20 03:14:11;;;;;;;3.38;0.98;;;;;;;0.58;100.00;93474.19;2120000;27;20051;-70
2022/09/20 03:15:37;;;;;;;0.98;0.60;;;;;;;0.55;100.00;93474.13;2127380;27;20046;-70
2022/09/20 03:16:53;;;;;;;1.73;0.80;;;;;;;0.54;100.00;93475.22;2126917;27;20027;-70
2022/09/20 03:18:08;;;;;;;1.60;0.90;;;;;;;0.58;100.00;93478.69;2124444;27;20097;-70
2022/09/20 03:19:27;;;;;;;2.95;1.23;;;;;;;0.62;100.00;93475.03;2128830;27;20030;-70
2022/09/20 03:20:40;;;;;;;4.05;1.20;;;;;;;0.62;100.00;93480.28;2125731;27;20464;-70
2022/09/20 03:22:12;;;;;;;1.38;1.00;;;;;;;0.60;100.00;93471.97;2127618;27;20099;-70
2022/09/20 03:24:12;;;;;;;1.15;1.05;;;;;;;0.55;100.00;93479.38;2127840;27;20419;-70
2022/09/20 03:25:38;;;;;;;1.77;1.10;;;;;;;0.57;100.00;93482.41;2127416;27;20354;-72
2022/09/20 03:27:18;;;;;;;1.67;1.10;;;;;;;0.57;100.00;93480.56;2122929;27;20068;-70
2022/09/20 03:28:25;;;;;;;;;;;;;;;0.58;100.00;93489.97;2123553;27;20109;-70
2022/09/20 03:29:54;;;;;;;1.90;1.05;;;;;;;0.60;100.00;93489.63;2119558;27;20260;-70
2022/09/20 03:31:23;;;;;;;2.63;1.00;;;;;;;0.55;100.00;93488.03;2119215;27;20103;-70
2022/09/20 03:32:45;;;;;;;2.30;1.25;;;;;;;0.53;100.00;93486.81;2118935;27;20387;-71
2022/09/20 03:34:15;;;;;;;4.25;1.40;;;;;;;0.52;100.00;93487.94;2123031;27;20377;-70
2022/09/20 03:35:28;;;;;;;;;;;;;;;0.50;100.00;93483.03;2122866;27;20033;-68
2022/09/20 03:36:54;;;;;;;2.30;1.17;;;;;;;0.57;100.00;93483.19;2119949;27;19926;-68
2022/09/20 03:38:17;;;;;;;4.30;1.20;;;;;;;0.56;100.00;93480.88;2119145;27;20019;-71
2022/09/20 03:39:28;;;;;;;1.70;0.93;;;;;;;0.60;100.00;93477.22;2123179;27;20022;-71
2022/09/20 03:41:14;;;;;;;3.33;1.10;;;;;;;0.55;100.00;93489.91;2120087;27;20088;-71
2022/09/20 03:42:28;;;;;;;3.40;0.98;;;;;;;0.54;100.00;93483.13;2109699;27;20430;-69
2022/09/20 03:43:55;;;;;;;6.20;1.15;;;;;;;0.48;100.00;93479.97;2110283;28;20114;-71
2022/09/20 03:45:52;;;;;;;1.73;1.00;;;;;;;0.49;100.00;93487.53;2114548;27;20027;-68
2022/09/20 03:47:12;;;;;;;5.38;2.03;;;;;;;0.52;100.00;93488.69;2123088;27;20045;-70
2022/09/20 03:48:13;;;;;;;3.17;1.85;;;;;;;0.50;100.00;93490.91;2113661;28;20027;-71
2022/09/20 03:49:35;;;;;;;3.28;1.88;;;;;;;0.48;100.00;93486.00;2113483;28;20020;-71
2022/09/20 03:50:55;;;;;;;3.55;1.42;;;;;;;0.52;100.00;93491.31;2120878;27;20024;-71
2022/09/20 03:52:05;;;;;;;2.97;1.48;;;;;;;0.53;100.00;93495.50;2119506;27;20484;-70
2022/09/20 03:53:46;;;;;;;2.33;1.35;;;;;;;0.54;100.00;93494.41;2112935;28;20046;-72
2022/09/20 03:55:25;;;;;;;2.70;1.40;;;;;;;0.48;100.00;93490.47;2119231;27;20027;-72
2022/09/20 03:56:44;;;;;;;1.92;1.25;;;;;;;0.47;100.00;93488.97;2119229;27;20031;-67
2022/09/20 03:58:03;;;;;;;2.55;0.93;;;;;;;0.42;100.00;93491.88;2120589;27;20037;-67
2022/09/20 03:59:32;;;;;;;2.88;1.30;;;;;;;0.43;100.00;93488.88;2120670;27;20080;-66
2022/09/20 04:01:10;;;;;;;2.97;1.10;;;;;;;0.44;100.00;93492.28;2120402;27;20038;-69
2022/09/20 04:02:35;;;;;;;3.45;1.10;;;;;;;0.39;100.00;93490.66;2112536;27;20137;-70
2022/09/20 04:03:44;;;;;;;3.40;1.20;;;;;;;0.41;100.00;93487.72;2114217;27;20031;-69
2022/09/20 04:04:45;;;;;;;1.92;1.38;;;;;;;0.44;100.00;93494.91;2122974;27;20027;-70
2022/09/20 04:05:53;;;;;;;4.85;1.20;;;;;;;0.40;100.00;93494.09;2122779;27;20023;-70
2022/09/20 04:07:17;;;;;;;3.03;1.05;;;;;;;0.38;100.00;93497.03;2119202;27;20093;-71
2022/09/20 04:08:39;;;;;;;2.65;0.90;;;;;;;0.34;100.00;93487.53;2122526;27;20034;-70
2022/09/20 04:10:02;;;;;;;2.08;0.93;;;;;;;0.36;100.00;93495.88;2120961;27;20067;-70
2022/09/20 04:11:19;;;;;;;3.45;1.17;;;;;;;0.38;100.00;93494.41;2119978;27;20026;-69
2022/09/20 04:12:55;;;;;;;1.92;0.98;;;;;;;0.37;100.00;93492.88;2122947;27;20027;-69
2022/09/20 04:14:20;;;;;;;4.50;1.20;;;;;;;0.42;100.00;93497.88;2079271;27;20038;-66
2022/09/20 04:15:33;;;;;;;1.88;1.00;;;;;;;0.42;100.00;93492.63;2117760;27;20503;-69
2022/09/20 04:16:50;;;;;;;1.08;0.90;;;;;;;0.35;100.00;93491.69;2122487;27;20027;-69
2022/09/20 04:18:05;;;;;;;2.30;1.20;;;;;;;0.30;100.00;93491.97;2122832;27;20066;-70
2022/09/20 04:19:37;;;;;;;4.40;1.20;;;;;;;0.33;100.00;93504.44;2120096;27;20066;-68
2022/09/20 04:21:00;;;;;;;2.63;1.00;;;;;;;0.37;100.00;93495.53;2120460;27;20023;-69
2022/09/20 04:22:02;;;;;;;2.67;1.00;;;;;;;0.34;100.00;93495.44;2110581;28;20034;-70
2022/09/20 04:23:16;;;;;;;3.30;1.20;;;;;;;0.37;100.00;93494.75;2113832;28;20370;-68
2022/09/20 04:24:24;;;;;;;2.17;1.10;;;;;;;0.31;100.00;93489.00;2121747;27;20034;-71
2022/09/20 04:25:47;;;;;;;1.58;0.90;;;;;;;0.33;100.00;93497.31;2118653;27;20023;-70
2022/09/20 04:26:55;;;;;;;5.18;1.17;;;;;;;0.35;100.00;93487.22;2122783;27;20457;-69
2022/09/20 04:28:01;;;;;;;2.53;1.00;;;;;;;0.32;100.00;93493.16;2118674;27;20023;-70
2022/09/20 04:29:28;;;;;;;2.92;0.82;;;;;;;0.31;100.00;93486.38;2122135;27;20113;-69
2022/09/20 04:30:36;;;;;;;3.05;1.27;;;;;;;0.32;100.00;93490.53;2113712;28;20392;-71
2022/09/20 04:31:45;;;;;;;2.97;1.05;;;;;;;0.32;100.00;93492.41;2114690;27;20099;-71
2022/09/20 04:33:22;;;;;;;5.75;1.10;;;;;;;0.30;100.00;93494.59;2122714;27;20076;-70
2022/09/20 04:36:35;;;;;;;4.53;1.23;;;;;;;0.41;100.00;93492.97;2119341;27;20034;-70
2022/09/20 04:37:37;;;;;;;3.10;1.70;;;;;;;0.41;100.00;93504.25;2111327;28;20103;-70
2022/09/20 04:38:38;;;;;;;4.45;1.60;;;;;;;0.40;100.00;93497.47;2112635;28;20034;-70
2022/09/20 04:39:49;;;;;;;2.63;1.27;;;;;;;0.37;100.00;93494.75;2121244;27;20113;-71
2022/09/20 04:41:19;;;;;;;1.65;1.02;;;;;;;0.36;100.00;93494.00;2122170;27;20035;-70
2022/09/20 04:43:00;;;;;;;1.80;1.15;;;;;;;0.15;100.00;93496.13;2122580;27;20038;-72
2022/09/20 04:44:10;;;;;;;1.40;1.30;;;;;;;0.22;100.00;93494.44;2111423;28;20031;-70
2022/09/20 04:45:20;;;;;;;4.88;1.55;;;;;;;0.26;100.00;93491.88;2114364;27;20166;-71
2022/09/20 04:46:34;;;;;;;4.97;1.70;;;;;;;0.20;100.00;93488.75;2117842;27;20031;-74
2022/09/20 04:48:03;;;;;;;2.60;1.38;;;;;;;0.25;100.00;93493.75;2113125;28;20504;-71
2022/09/20 04:49:16;;;;;;;3.00;1.23;;;;;;;0.28;100.00;93491.56;2115060;27;20114;-73
2022/09/20 04:51:03;;;;;;;3.85;1.63;;;;;;;0.25;100.00;93490.34;2121711;27;20080;-71
2022/09/20 04:52:26;;;;;;;3.05;1.10;;;;;;;0.26;100.00;93499.75;2119470;27;20035;-71
2022/09/20 04:53:57;;;;;;;3.10;1.30;;;;;;;0.24;100.00;93494.09;2108710;28;20489;-73
2022/09/20 04:55:08;;;;;;;3.35;1.10;;;;;;;0.16;100.00;93497.66;2117719;27;20027;-73
2022/09/20 04:56:51;;;;;;;2.95;1.15;;;;;;;0.24;100.00;93507.25;2121956;27;20035;-71
2022/09/20 04:58:10;;;;;;;3.30;1.20;;;;;;;0.25;100.00;93500.88;2122111;27;20043;-71
2022/09/20 04:59:34;;;;;;;6.55;1.30;;;;;;;0.25;100.00;93500.88;2122217;27;20031;-71
2022/09/20 05:01:15;;;;;;;2.80;1.15;;;;;;;0.31;100.00;93506.63;2103072;27;20032;-72
2022/09/20 05:02:44;;;;;;;2.10;1.25;;;;;;;0.29;100.00;93514.09;2122272;27;20026;-70
2022/09/20 05:04:21;;;;;;;4.25;2.63;;;;;;;0.33;100.00;93518.34;2121254;27;20513;-72
2022/09/20 05:05:51;;;;;;;3.85;2.80;;;;;;;0.32;100.00;93518.69;2118140;27;20030;-70
2022/09/20 05:07:11;;;;;;;4.45;2.72;;;;;;;0.28;100.00;93515.22;2079033;28;20045;-72
2022/09/20 05:08:21;;;;;;;5.05;4.07;;;;;;;0.29;100.00;93519.34;2087824;27;20052;-70
2022/09/20 05:09:31;;;;;;;5.03;3.55;;;;;;;0.29;100.00;93511.47;2117710;27;20045;-71
2022/09/20 05:10:39;;;;;;;;;;;;;;;0.20;100.00;93509.78;2113511;28;20036;-70
2022/09/20 05:12:15;;;;;;;7.72;3.53;;;;;;;0.27;100.00;93509.19;2113505;27;19907;-73
2022/09/20 05:13:53;;;;;;;9.77;2.90;;;;;;;0.40;100.00;93513.25;2112807;27;20019;-70
2022/09/20 05:15:13;;;;;;;3.92;2.85;;;;;;;0.26;100.00;93515.53;2089948;28;20051;-72
2022/09/20 05:16:56;;;;;;;4.85;2.75;;;;;;;0.32;100.00;93514.19;2093452;28;20439;-70
2022/09/20 05:18:19;;;;;;;4.63;3.20;;;;;;;0.10;100.00;93517.41;2091701;28;20119;-70
2022/09/20 05:19:33;;;;;;;6.53;2.78;;;;;;;0.22;100.00;93523.34;2097039;28;20039;-71
2022/09/20 05:20:58;;;;;;;5.07;3.17;;;;;;;0.20;100.00;93516.91;2119552;27;20046;-70
2022/09/20 05:22:32;;;;;;;3.88;2.63;;;;;;;0.12;100.00;93520.47;2109821;28;20040;-72
2022/09/20 05:24:22;;;;;;;5.13;2.67;;;;;;;0.20;100.00;93522.16;2115399;27;20037;-69
2022/09/20 05:25:31;;;;;;;6.30;2.20;;;;;;;0.25;100.00;93522.66;2116553;27;20019;-70
2022/09/20 05:26:43;;;;;;;3.30;2.08;;;;;;;0.17;100.00;93528.84;2114138;27;20098;-70
2022/09/20 05:27:58;;;;;;;3.38;2.25;;;;;;;0.21;100.00;93519.19;2117869;27;20115;-70
2022/09/20 05:29:11;;;;;;;6.57;2.45;;;;;;;0.27;100.00;93526.84;2109718;28;20153;-69
2022/09/20 05:30:30;;;;;;;3.92;2.67;;;;;;;0.21;100.00;93534.19;2112053;27;20115;-70
2022/09/20 05:31:50;;;;;;;3.33;1.70;;;;;;;0.17;100.00;93520.19;2114207;27;20039;-70
2022/09/20 05:33:09;;;;;;;6.07;1.80;;;;;;;0.28;100.00;93530.97;2118389;27;20031;-70
2022/09/20 05:34:28;;;;;;;8.75;1.77;;;;;;;0.30;100.00;93526.13;2115815;27;20113;-69
2022/09/20 05:35:46;;;;;;;6.80;1.60;;;;;;;0.25;100.00;93524.53;2119155;27;20029;-70
2022/09/20 05:36:56;;;;;;;5.75;2.10;;;;;;;0.35;100.00;93520.63;2119253;27;20027;-70
2022/09/20 05:38:15;;;;;;;2.53;2.15;;;;;;;0.39;100.00;93532.75;2116344;27;20023;-70
2022/09/20 05:39:28;;;;;;;4.30;1.77;;;;;;;0.38;100.00;93523.34;2119468;27;20027;-71
2022/09/20 05:40:38;;;;;;;5.60;1.83;;;;;;;0.40;100.00;93518.50;2114508;27;20027;-70
2022/09/20 05:41:46;;;;;;;4.03;1.60;;;;;;;0.50;100.00;93528.50;2114622;27;20699;-70
2022/09/20 05:43:05;;;;;;;3.53;2.10;;;;;;;0.58;100.00;93529.44;2117054;27;20068;-69
2022/09/20 05:44:39;;;;;;;4.13;1.50;;;;;;;0.57;100.00;93530.53;2117946;27;20031;-71
2022/09/20 05:45:47;;;;;;;5.97;1.75;;;;;;;0.60;100.00;93523.81;2113865;27;20035;-70
2022/09/20 05:47:17;;;;;;;6.72;1.85;;;;;;;0.67;100.00;93530.00;2119892;27;20637;-70
2022/09/20 05:48:18;;;;;;;4.25;1.70;;;;;;;0.73;100.00;93526.00;2118619;27;20023;-70
2022/09/20 05:49:48;;;;;;;2.55;1.80;;;;;;;0.68;100.00;93530.75;2118641;27;20021;-70
2022/09/20 05:50:59;;;;;;;;;;;;;;;0.70;100.00;93531.16;2095090;27;20040;-72
2022/09/20 05:52:19;;;;;;;3.88;1.80;;;;;;;0.70;100.00;93525.91;2116936;27;19916;-70
2022/09/20 05:53:38;;;;;;;3.28;1.70;;;;;;;0.71;100.00;93525.59;2116305;27;20024;-69
2022/09/20 05:55:14;;;;;;;4.65;2.03;;;;;;;0.83;100.00;93522.06;2117286;27;20046;-70
2022/09/20 05:56:33;;;;;;;4.03;1.90;;;;;;;0.78;100.00;93530.22;2075996;28;20083;-71
2022/09/20 05:58:10;;;;;;;5.25;1.65;;;;;;;0.81;100.00;93524.28;2116589;27;20046;-71
2022/09/20 05:59:32;;;;;;;2.42;1.40;;;;;;;0.81;100.00;93532.19;2118073;27;20417;-70
2022/09/20 06:00:43;;;;;;;3.80;1.60;;;;;;;0.88;100.00;93524.44;2117703;27;20458;-69
2022/09/20 06:02:17;;;;;;;1.65;1.40;;;;;;;0.91;100.00;93525.59;2119295;27;20130;-69